createdAt,value
2017-09-25T00:02:09.243Z,11.97
2017-09-25T00:04:37.842Z,11.97
2017-09-25T00:07:06.483Z,11.60
2017-09-25T00:09:34.336Z,11.57
2017-09-25T00:12:02.192Z,11.53
2017-09-25T00:14:29.968Z,11.00
2017-09-25T00:16:57.838Z,13.03
2017-09-25T00:19:25.648Z,11.00
2017-09-25T00:21:54.363Z,10.77
2017-09-25T00:24:22.156Z,13.47
2017-09-25T00:26:50.068Z,12.50
2017-09-25T00:29:18.797Z,12.33
2017-09-25T00:31:46.667Z,12.80
2017-09-25T00:34:14.740Z,13.40
2017-09-25T00:36:42.547Z,13.03
2017-09-25T00:39:11.135Z,13.40
2017-09-25T00:41:39.687Z,13.53
2017-09-25T00:44:07.568Z,11.37
2017-09-25T00:46:35.429Z,11.17
2017-09-25T00:49:03.394Z,10.10
2017-09-25T00:51:32.067Z,9.87
2017-09-25T00:54:00.111Z,9.40
2017-09-25T00:56:27.982Z,8.70
2017-09-25T00:58:55.942Z,8.87
2017-09-25T01:04:40.627Z,8.80
2017-09-25T01:07:08.548Z,8.03
2017-09-25T01:09:37.162Z,8.67
2017-09-25T01:12:05.090Z,10.00
2017-09-25T01:14:33.060Z,8.60
2017-09-25T01:17:01.673Z,9.80
2017-09-25T01:19:29.603Z,10.00
2017-09-25T01:21:57.465Z,10.07
2017-09-25T01:24:25.372Z,9.33
2017-09-25T01:26:54.102Z,10.10
2017-09-25T01:29:22.035Z,11.00
2017-09-25T01:31:50.007Z,10.27
2017-09-25T01:34:17.925Z,10.70
2017-09-25T01:36:45.888Z,10.30
2017-09-25T01:39:13.883Z,10.10
2017-09-25T01:41:42.608Z,11.50
2017-09-25T01:44:10.482Z,11.33
2017-09-25T01:46:38.360Z,11.67
2017-09-25T01:49:06.259Z,11.13
2017-09-25T01:51:34.172Z,12.17
2017-09-25T01:54:02.012Z,13.37
2017-09-25T01:56:30.715Z,12.43
2017-09-25T01:58:58.702Z,10.23
2017-09-25T02:01:26.587Z,9.77
2017-09-25T02:03:54.447Z,10.80
2017-09-25T02:06:22.368Z,11.77
2017-09-25T02:08:50.240Z,12.60
2017-09-25T02:11:18.095Z,10.00
2017-09-25T02:13:46.701Z,10.60
2017-09-25T02:16:14.588Z,11.10
2017-09-25T02:18:42.423Z,10.03
2017-09-25T02:21:11.095Z,9.43
2017-09-25T02:23:39.721Z,8.80
2017-09-25T02:26:07.546Z,8.97
2017-09-25T02:28:36.216Z,9.30
2017-09-25T02:31:04.914Z,7.67
2017-09-25T02:33:33.672Z,8.70
2017-09-25T02:36:01.683Z,7.70
2017-09-25T02:38:30.368Z,8.27
2017-09-25T02:40:59.120Z,7.97
2017-09-25T02:43:26.995Z,7.70
2017-09-25T02:45:55.679Z,7.67
2017-09-25T02:48:23.524Z,7.33
2017-09-25T02:50:51.410Z,7.30
2017-09-25T02:53:19.331Z,7.20
2017-09-25T02:55:47.180Z,7.50
2017-09-25T02:58:15.026Z,7.57
2017-09-25T03:00:43.688Z,7.63
2017-09-25T03:03:11.530Z,7.40
2017-09-25T03:05:39.348Z,7.23
2017-09-25T03:08:07.954Z,7.60
2017-09-25T03:10:35.824Z,7.10
2017-09-25T03:13:03.711Z,7.33
2017-09-25T03:15:31.561Z,7.93
2017-09-25T03:17:59.363Z,7.27
2017-09-25T03:20:27.188Z,9.07
2017-09-25T03:22:55.112Z,7.80
2017-09-25T03:25:22.983Z,7.90
2017-09-25T03:27:50.825Z,8.13
2017-09-25T03:30:18.694Z,7.13
2017-09-25T03:32:46.595Z,7.60
2017-09-25T03:35:15.228Z,7.50
2017-09-25T03:37:43.062Z,7.70
2017-09-25T03:40:10.933Z,8.50
2017-09-25T03:42:38.847Z,8.53
2017-09-25T03:45:06.737Z,8.40
2017-09-25T03:47:35.393Z,9.37
2017-09-25T03:50:03.256Z,9.07
2017-09-25T03:52:31.156Z,8.90
2017-09-25T03:54:58.969Z,10.00
2017-09-25T03:57:26.864Z,8.90
2017-09-25T03:59:54.771Z,9.13
2017-09-25T04:02:23.365Z,10.40
2017-09-25T04:04:51.239Z,9.17
2017-09-25T04:07:19.063Z,8.80
2017-09-25T04:09:47.012Z,8.47
2017-09-25T04:12:14.889Z,9.43
2017-09-25T04:14:42.753Z,9.53
2017-09-25T04:17:10.605Z,9.87
2017-09-25T04:19:38.429Z,8.83
2017-09-25T04:22:06.271Z,9.13
2017-09-25T04:24:34.979Z,8.63
2017-09-25T04:27:02.803Z,9.17
2017-09-25T04:29:30.691Z,10.50
2017-09-25T04:31:59.305Z,10.23
2017-09-25T04:34:27.140Z,11.37
2017-09-25T04:36:55.765Z,11.37
2017-09-25T04:39:23.676Z,11.37
2017-09-25T04:41:51.481Z,8.27
2017-09-25T04:44:19.317Z,8.17
2017-09-25T04:46:47.129Z,9.60
2017-09-25T04:49:15.007Z,7.97
2017-09-25T04:51:43.655Z,8.13
2017-09-25T04:54:12.259Z,7.83
2017-09-25T04:56:40.097Z,7.70
2017-09-25T04:59:08.677Z,7.10
2017-09-25T05:01:37.297Z,6.30
2017-09-25T05:04:05.160Z,7.13
2017-09-25T05:06:33.174Z,6.97
2017-09-25T05:09:01.076Z,7.33
2017-09-25T05:11:28.896Z,7.73
2017-09-25T05:13:56.818Z,7.00
2017-09-25T05:16:24.682Z,8.30
2017-09-25T05:18:52.549Z,7.30
2017-09-25T05:21:20.404Z,7.83
2017-09-25T05:23:49.036Z,7.87
2017-09-25T05:26:16.883Z,7.90
2017-09-25T05:28:44.854Z,6.80
2017-09-25T05:31:12.749Z,6.90
2017-09-25T05:33:40.637Z,6.70
2017-09-25T05:36:09.339Z,6.90
2017-09-25T05:38:37.984Z,6.80
2017-09-25T05:41:05.806Z,7.33
2017-09-25T05:43:33.638Z,7.67
2017-09-25T05:46:02.326Z,7.30
2017-09-25T05:48:30.955Z,7.53
2017-09-25T05:50:58.853Z,7.00
2017-09-25T05:53:26.697Z,6.53
2017-09-25T05:55:54.548Z,7.30
2017-09-25T05:58:22.441Z,6.50
2017-09-25T06:00:50.325Z,7.43
2017-09-25T06:03:18.164Z,7.45
2017-09-25T06:05:46.135Z,7.67
2017-09-25T06:08:13.976Z,8.77
2017-09-25T06:10:41.807Z,8.00
2017-09-25T06:13:10.487Z,9.80
2017-09-25T06:15:39.234Z,8.97
2017-09-25T06:18:07.122Z,9.10
2017-09-25T06:20:34.964Z,9.27
2017-09-25T06:23:02.872Z,10.63
2017-09-25T06:25:30.768Z,9.10
2017-09-25T06:27:58.635Z,11.27
2017-09-25T06:30:26.525Z,10.27
2017-09-25T06:32:54.358Z,10.20
2017-09-25T06:35:23.000Z,10.77
2017-09-25T06:37:50.938Z,11.90
2017-09-25T06:40:18.794Z,11.20
2017-09-25T06:42:46.705Z,11.10
2017-09-25T06:45:14.573Z,10.00
2017-09-25T06:47:42.435Z,10.80
2017-09-25T06:50:10.291Z,11.00
2017-09-25T06:52:38.227Z,10.80
2017-09-25T06:55:06.158Z,11.37
2017-09-25T06:57:34.043Z,11.47
2017-09-25T07:00:02.694Z,11.13
2017-09-25T07:02:30.524Z,10.70
2017-09-25T07:04:58.376Z,10.47
2017-09-25T07:07:26.221Z,10.60
2017-09-25T07:09:54.160Z,10.80
2017-09-25T07:12:22.084Z,9.80
2017-09-25T07:14:49.953Z,10.33
2017-09-25T07:17:17.845Z,10.50
2017-09-25T07:19:45.670Z,9.00
2017-09-25T07:22:13.528Z,9.40
2017-09-25T07:24:42.136Z,8.77
2017-09-25T07:27:09.958Z,9.47
2017-09-25T07:29:37.807Z,9.53
2017-09-25T07:32:05.646Z,9.60
2017-09-25T07:34:33.570Z,8.70
2017-09-25T07:37:01.517Z,9.40
2017-09-25T07:39:29.455Z,9.17
2017-09-25T07:41:57.326Z,10.50
2017-09-25T07:44:25.153Z,10.40
2017-09-25T07:46:53.773Z,10.70
2017-09-25T07:49:21.628Z,11.60
2017-09-25T07:51:49.470Z,9.50
2017-09-25T07:54:17.327Z,9.27
2017-09-25T07:56:45.932Z,9.93
2017-09-25T07:59:13.789Z,10.57
2017-09-25T08:01:41.724Z,11.40
2017-09-25T08:04:10.344Z,10.70
2017-09-25T08:06:38.318Z,11.73
2017-09-25T08:09:06.161Z,11.63
2017-09-25T08:11:34.836Z,10.67
2017-09-25T08:14:03.443Z,11.17
2017-09-25T08:16:31.288Z,10.50
2017-09-25T08:18:59.915Z,10.03
2017-09-25T08:21:27.774Z,9.57
2017-09-25T08:23:55.677Z,10.13
2017-09-25T08:26:23.626Z,9.20
2017-09-25T08:28:51.498Z,9.50
2017-09-25T08:31:19.348Z,8.47
2017-09-25T08:33:47.252Z,9.00
2017-09-25T08:36:15.149Z,8.70
2017-09-25T08:38:43.087Z,9.40
2017-09-25T08:41:10.992Z,8.40
2017-09-25T08:43:39.577Z,7.23
2017-09-25T08:46:07.457Z,7.10
2017-09-25T08:48:35.305Z,7.90
2017-09-25T08:51:03.229Z,8.10
2017-09-25T08:53:31.052Z,8.30
2017-09-25T08:55:58.863Z,9.33
2017-09-25T08:58:28.375Z,8.30
2017-09-25T09:00:57.015Z,7.37
2017-09-25T09:03:24.907Z,8.77
2017-09-25T09:05:52.749Z,8.70
2017-09-25T09:08:32.352Z,9.50
2017-09-25T09:11:00.957Z,9.70
2017-09-25T09:13:28.784Z,9.80
2017-09-25T09:15:56.741Z,9.30
2017-09-25T09:18:24.595Z,8.77
2017-09-25T09:20:52.432Z,10.10
2017-09-25T09:23:20.260Z,8.97
2017-09-25T09:25:48.179Z,11.27
2017-09-25T09:28:16.077Z,10.80
2017-09-25T09:30:43.913Z,10.40
2017-09-25T09:33:11.738Z,9.10
2017-09-25T09:35:40.340Z,10.20
2017-09-25T09:38:08.253Z,10.13
2017-09-25T09:40:36.246Z,11.20
2017-09-25T09:43:05.121Z,11.50
2017-09-25T09:45:33.785Z,13.00
2017-09-25T09:48:01.617Z,12.17
2017-09-25T09:50:29.496Z,14.80
2017-09-25T09:52:57.429Z,15.23
2017-09-25T09:55:25.479Z,13.47
2017-09-25T09:57:53.363Z,12.60
2017-09-25T10:00:22.102Z,13.20
2017-09-25T10:02:50.060Z,12.53
2017-09-25T10:05:18.695Z,12.20
2017-09-25T10:07:46.589Z,12.57
2017-09-25T10:10:15.431Z,12.83
2017-09-25T10:12:43.468Z,12.33
2017-09-25T10:15:12.142Z,13.10
2017-09-25T10:17:40.026Z,14.37
2017-09-25T10:20:07.869Z,13.07
2017-09-25T10:22:36.517Z,14.60
2017-09-25T10:25:04.379Z,18.07
2017-09-25T10:27:32.368Z,16.10
2017-09-25T10:30:01.027Z,17.77
2017-09-25T10:32:28.860Z,17.33
2017-09-25T10:34:56.993Z,18.43
2017-09-25T10:37:25.089Z,17.45
2017-09-25T10:39:52.998Z,20.07
2017-09-25T10:42:20.925Z,19.37
2017-09-25T10:44:48.944Z,19.20
2017-09-25T10:47:16.803Z,23.20
2017-09-25T10:49:44.635Z,20.83
2017-09-25T10:52:12.535Z,22.47
2017-09-25T10:54:40.355Z,20.90
2017-09-25T10:57:08.300Z,22.33
2017-09-25T10:59:36.224Z,19.50
2017-09-25T11:02:04.132Z,17.50
2017-09-25T11:04:32.086Z,19.23
2017-09-25T11:07:00.750Z,18.27
2017-09-25T11:09:28.656Z,17.40
2017-09-25T11:11:57.252Z,16.40
2017-09-25T11:14:25.921Z,16.83
2017-09-25T11:16:54.583Z,17.07
2017-09-25T11:19:22.495Z,17.70
2017-09-25T11:21:51.092Z,19.10
2017-09-25T11:24:18.976Z,19.90
2017-09-25T11:26:46.910Z,20.03
2017-09-25T11:29:15.578Z,22.43
2017-09-25T11:31:44.245Z,21.83
2017-09-25T11:34:12.142Z,22.20
2017-09-25T11:36:40.793Z,20.93
2017-09-25T11:39:08.641Z,22.13
2017-09-25T11:41:36.563Z,18.87
2017-09-25T11:44:05.288Z,19.70
2017-09-25T11:46:33.252Z,19.10
2017-09-25T11:49:01.182Z,19.67
2017-09-25T11:51:29.835Z,19.97
2017-09-25T11:53:57.706Z,20.50
2017-09-25T11:56:25.542Z,19.87
2017-09-25T11:58:53.367Z,19.43
2017-09-25T12:01:22.023Z,18.93
2017-09-25T12:03:49.925Z,18.62
2017-09-25T12:06:17.769Z,20.27
2017-09-25T12:08:45.625Z,18.90
2017-09-25T12:11:13.488Z,19.40
2017-09-25T12:13:41.369Z,20.60
2017-09-25T12:16:09.220Z,21.37
2017-09-25T12:18:37.067Z,21.47
2017-09-25T12:21:04.949Z,22.23
2017-09-25T12:23:32.939Z,22.57
2017-09-25T12:26:01.573Z,21.97
2017-09-25T12:28:29.499Z,21.07
2017-09-25T12:30:57.352Z,21.27
2017-09-25T12:33:25.209Z,21.37
2017-09-25T12:35:53.095Z,19.60
2017-09-25T12:38:21.724Z,20.80
2017-09-25T12:40:50.315Z,20.07
2017-09-25T12:43:18.300Z,19.33
2017-09-25T12:45:46.227Z,18.13
2017-09-25T12:48:14.128Z,19.67
2017-09-25T12:50:42.017Z,20.13
2017-09-25T12:53:09.870Z,18.63
2017-09-25T12:55:37.743Z,16.87
2017-09-25T12:58:05.687Z,18.77
2017-09-25T13:00:33.556Z,18.97
2017-09-25T13:03:01.364Z,17.00
2017-09-25T13:05:30.017Z,16.97
2017-09-25T13:07:57.872Z,17.50
2017-09-25T13:10:25.700Z,19.60
2017-09-25T13:12:53.607Z,17.13
2017-09-25T13:15:21.451Z,17.20
2017-09-25T13:17:49.293Z,16.33
2017-09-25T13:20:17.910Z,17.83
2017-09-25T13:22:45.728Z,17.53
2017-09-25T13:25:14.340Z,17.50
2017-09-25T13:27:42.248Z,17.27
2017-09-25T13:30:10.118Z,18.17
2017-09-25T13:32:37.932Z,19.57
2017-09-25T13:35:05.748Z,16.57
2017-09-25T13:37:33.588Z,16.27
2017-09-25T13:40:02.147Z,17.27
2017-09-25T13:42:30.292Z,16.70
2017-09-25T13:44:58.997Z,15.37
2017-09-25T13:47:26.847Z,15.47
2017-09-25T13:49:56.851Z,16.23
2017-09-25T13:52:25.492Z,15.03
2017-09-25T13:54:53.332Z,14.77
2017-09-25T13:57:21.220Z,14.97
2017-09-25T14:02:26.692Z,14.30
2017-09-25T14:04:54.561Z,14.57
2017-09-25T14:07:22.484Z,15.97
2017-09-25T14:09:51.191Z,15.30
2017-09-25T14:12:19.122Z,16.93
2017-09-25T14:14:47.047Z,16.37
2017-09-25T14:17:15.011Z,15.27
2017-09-25T14:19:42.909Z,14.43
2017-09-25T14:22:10.854Z,14.60
2017-09-25T14:24:38.712Z,14.83
2017-09-25T14:27:06.535Z,15.17
2017-09-25T14:29:35.151Z,14.53
2017-09-25T14:32:03.054Z,14.77
2017-09-25T14:34:30.897Z,14.37
2017-09-25T14:36:58.843Z,14.00
2017-09-25T14:39:26.695Z,13.73
2017-09-25T14:41:55.317Z,15.73
2017-09-25T14:44:23.146Z,14.47
2017-09-25T14:46:51.902Z,13.80
2017-09-25T14:49:19.800Z,13.43
2017-09-25T14:51:47.733Z,12.53
2017-09-25T14:54:15.606Z,13.20
2017-09-25T14:56:43.499Z,13.63
2017-09-25T14:59:12.122Z,13.17
2017-09-25T15:01:40.035Z,13.20
2017-09-25T15:04:08.660Z,12.97
2017-09-25T15:06:36.491Z,14.83
2017-09-25T15:09:05.290Z,13.47
2017-09-25T15:11:33.954Z,13.47
2017-09-25T15:14:01.781Z,12.95
2017-09-25T15:16:29.653Z,12.50
2017-09-25T15:18:57.497Z,11.77
2017-09-25T15:21:25.498Z,12.80
2017-09-25T15:23:53.386Z,13.37
2017-09-25T15:26:21.314Z,11.57
2017-09-25T15:28:49.239Z,12.20
2017-09-25T15:31:17.897Z,11.70
2017-09-25T15:33:45.738Z,11.23
2017-09-25T15:36:13.716Z,11.60
2017-09-25T15:38:41.691Z,10.03
2017-09-25T15:41:09.544Z,11.37
2017-09-25T15:43:37.426Z,12.37
2017-09-25T15:46:05.387Z,12.43
2017-09-25T15:48:33.233Z,11.00
2017-09-25T15:51:01.125Z,11.93
2017-09-25T15:53:29.249Z,11.03
2017-09-25T15:55:57.107Z,12.73
2017-09-25T15:58:25.910Z,12.33
2017-09-25T16:00:53.773Z,12.10
2017-09-25T16:03:21.700Z,12.20
2017-09-25T16:05:50.172Z,11.20
2017-09-25T16:08:18.054Z,10.97
2017-09-25T16:10:45.960Z,12.80
2017-09-25T16:13:15.519Z,11.77
2017-09-25T16:15:43.492Z,11.40
2017-09-25T16:18:11.381Z,10.97
2017-09-25T16:20:40.042Z,11.50
2017-09-25T16:23:08.819Z,10.47
2017-09-25T16:25:36.735Z,11.20
2017-09-25T16:28:04.601Z,11.10
2017-09-25T16:30:32.600Z,11.40
2017-09-25T16:33:00.420Z,10.50
2017-09-25T16:35:28.980Z,11.53
2017-09-25T16:37:56.783Z,10.07
2017-09-25T16:40:24.596Z,11.37
2017-09-25T16:42:52.420Z,10.67
2017-09-25T16:45:20.233Z,10.37
2017-09-25T16:47:48.012Z,12.40
2017-09-25T16:50:15.800Z,13.00
2017-09-25T16:52:44.408Z,11.03
2017-09-25T16:55:12.280Z,12.93
2017-09-25T16:57:40.116Z,9.83
2017-09-25T17:00:09.053Z,11.00
2017-09-25T17:02:36.869Z,9.70
2017-09-25T17:05:05.441Z,10.67
2017-09-25T17:07:34.054Z,10.93
2017-09-25T17:10:01.953Z,10.77
2017-09-25T17:12:30.989Z,10.23
2017-09-25T17:15:00.502Z,10.30
2017-09-25T17:17:30.470Z,9.80
2017-09-25T17:20:00.443Z,10.97
2017-09-25T17:22:30.479Z,11.07
2017-09-25T17:24:59.473Z,10.90
2017-09-25T17:27:28.221Z,11.37
2017-09-25T17:29:56.859Z,10.97
2017-09-25T17:32:24.704Z,10.90
2017-09-25T17:34:52.523Z,11.47
2017-09-25T17:37:20.344Z,11.47
2017-09-25T17:39:48.172Z,11.43
2017-09-25T17:42:16.753Z,11.97
2017-09-25T17:44:45.423Z,12.77
2017-09-25T17:47:13.209Z,12.13
2017-09-25T17:49:41.778Z,10.97
2017-09-25T17:52:09.581Z,10.87
2017-09-25T17:54:37.502Z,10.77
2017-09-25T17:57:05.355Z,11.13
2017-09-25T17:59:33.151Z,11.40
2017-09-25T18:02:01.735Z,12.43
2017-09-25T18:04:30.355Z,12.00
2017-09-25T18:06:58.185Z,12.33
2017-09-25T18:09:26.740Z,14.27
2017-09-25T18:11:54.601Z,14.07
2017-09-25T18:14:22.431Z,12.87
2017-09-25T18:16:50.267Z,14.73
2017-09-25T18:19:18.863Z,13.90
2017-09-25T18:21:46.770Z,14.60
2017-09-25T18:24:15.324Z,22.20
2017-09-25T18:26:43.203Z,16.83
2017-09-25T18:29:11.031Z,15.80
2017-09-25T18:31:38.862Z,17.20
2017-09-25T18:34:06.659Z,15.47
2017-09-25T18:36:35.231Z,15.97
2017-09-25T18:39:03.228Z,14.87
2017-09-25T18:41:32.106Z,15.87
2017-09-25T18:44:00.673Z,15.53
2017-09-25T18:46:28.553Z,15.30
2017-09-25T18:48:57.140Z,15.93
2017-09-25T18:51:25.757Z,13.90
2017-09-25T18:53:53.624Z,13.87
2017-09-25T18:56:21.420Z,14.60
2017-09-25T18:58:49.229Z,15.20
2017-09-25T19:01:17.801Z,15.07
2017-09-25T19:03:46.381Z,15.37
2017-09-25T19:06:15.011Z,15.00
2017-09-25T19:08:42.883Z,15.93
2017-09-25T19:11:10.739Z,15.83
2017-09-25T19:13:38.585Z,16.37
2017-09-25T19:16:07.151Z,15.67
2017-09-25T19:18:35.721Z,15.27
2017-09-25T19:21:04.321Z,16.20
2017-09-25T19:23:32.992Z,14.90
2017-09-25T19:26:01.553Z,16.67
2017-09-25T19:28:29.359Z,15.70
2017-09-25T19:30:58.020Z,16.30
2017-09-25T19:33:25.829Z,15.50
2017-09-25T19:35:53.665Z,17.03
2017-09-25T19:38:22.270Z,15.37
2017-09-25T19:40:50.183Z,16.53
2017-09-25T19:43:17.990Z,16.30
2017-09-25T19:45:46.676Z,17.37
2017-09-25T19:51:22.827Z,22.13
2017-09-25T19:54:05.522Z,22.37
2017-09-25T19:56:48.260Z,19.20
2017-09-25T19:59:16.940Z,16.20
2017-09-25T20:01:44.814Z,19.20
2017-09-25T20:04:12.845Z,18.03
2017-09-25T20:06:40.740Z,17.43
2017-09-25T20:09:08.636Z,17.60
2017-09-25T20:11:52.108Z,17.80
2017-09-25T20:14:20.499Z,21.20
2017-09-25T20:16:48.925Z,18.40
2017-09-25T20:19:17.529Z,19.93
2017-09-25T20:21:46.264Z,17.10
2017-09-25T20:24:14.218Z,18.80
2017-09-25T20:26:42.032Z,17.97
2017-09-25T20:29:10.683Z,17.10
2017-09-25T20:31:38.707Z,18.20
2017-09-25T20:34:07.364Z,18.03
2017-09-25T20:36:36.102Z,16.23
2017-09-25T20:39:04.138Z,17.20
2017-09-25T20:41:34.923Z,17.37
2017-09-25T20:44:02.790Z,17.10
2017-09-25T20:46:30.603Z,15.30
2017-09-25T20:48:58.404Z,16.80
2017-09-25T20:51:26.241Z,15.80
2017-09-25T20:53:57.605Z,14.67
2017-09-25T20:56:27.084Z,16.33
2017-09-25T20:58:54.903Z,16.33
2017-09-25T21:01:22.744Z,17.97
2017-09-25T21:03:50.560Z,17.50
2017-09-25T21:06:19.159Z,17.03
2017-09-25T21:08:47.055Z,16.67
2017-09-25T21:11:14.880Z,14.33
2017-09-25T21:13:43.445Z,16.20
2017-09-25T21:16:11.298Z,15.60
2017-09-25T21:18:39.145Z,15.70
2017-09-25T21:21:06.984Z,15.83
2017-09-25T21:23:34.881Z,16.23
2017-09-25T21:26:18.448Z,15.70
2017-09-25T21:28:46.293Z,19.70
2017-09-25T21:31:14.178Z,21.63
2017-09-25T21:33:42.008Z,23.43
2017-09-25T21:36:09.820Z,22.00
2017-09-25T21:38:38.441Z,24.73
2017-09-25T21:41:06.299Z,22.50
2017-09-25T21:43:34.104Z,21.77
2017-09-25T21:46:01.917Z,23.40
2017-09-25T21:48:30.562Z,21.97
2017-09-25T21:50:58.382Z,23.07
2017-09-25T21:53:26.260Z,24.33
2017-09-25T21:55:54.067Z,23.73
2017-09-25T21:58:21.888Z,24.03
2017-09-25T22:00:49.723Z,24.10
2017-09-25T22:03:18.280Z,25.63
2017-09-25T22:05:46.121Z,24.50
2017-09-25T22:08:13.952Z,23.90
2017-09-25T22:10:41.773Z,24.47
2017-09-25T22:13:09.595Z,24.00
2017-09-25T22:15:37.418Z,24.87
2017-09-25T22:18:05.984Z,24.20
2017-09-25T22:20:33.819Z,23.23
2017-09-25T22:23:01.676Z,25.47
2017-09-25T22:25:29.513Z,24.83
2017-09-25T22:27:58.107Z,23.73
2017-09-25T22:30:25.926Z,24.00
2017-09-25T22:32:53.780Z,25.47
2017-09-25T22:35:21.660Z,27.57
2017-09-25T22:37:49.539Z,29.67
2017-09-25T22:40:17.435Z,26.37
2017-09-25T22:42:46.102Z,26.70
2017-09-25T22:45:14.743Z,26.80
2017-09-25T22:47:42.549Z,26.90
2017-09-25T22:50:10.523Z,27.13
2017-09-25T22:52:39.162Z,27.33
2017-09-25T22:55:07.031Z,27.30
2017-09-25T22:57:34.920Z,26.20
2017-09-25T23:00:02.871Z,25.93
2017-09-25T23:02:30.756Z,31.40
2017-09-25T23:04:59.326Z,31.03
2017-09-25T23:07:27.208Z,31.10
2017-09-25T23:09:55.111Z,31.35
2017-09-25T23:12:23.000Z,32.53
2017-09-25T23:14:50.847Z,32.43
2017-09-25T23:17:18.657Z,34.10
2017-09-25T23:19:46.485Z,33.30
2017-09-25T23:22:14.313Z,33.30
2017-09-25T23:24:42.136Z,33.47
2017-09-25T23:27:10.093Z,32.40
2017-09-25T23:29:47.902Z,33.17
2017-09-25T23:32:15.759Z,32.83
2017-09-25T23:34:43.580Z,34.73
2017-09-25T23:37:12.183Z,34.07
2017-09-25T23:39:40.804Z,32.27
2017-09-25T23:42:08.644Z,33.67
2017-09-25T23:44:36.500Z,32.77
2017-09-25T23:47:05.092Z,33.40
2017-09-25T23:49:32.910Z,36.30
2017-09-25T23:52:01.638Z,36.27
2017-09-25T23:54:29.466Z,34.30
2017-09-25T23:56:57.278Z,35.57
2017-09-25T23:59:25.182Z,35.03
